Time;durP1;ratioP1;P1;durP2;ratioP2;P2;SDS_P1;SDS_P2;PMS_P1;PMS_P2;Temp;Humidity;BMP_temperature;BMP_pressure;BME280_temperature;BME280_humidity;BME280_pressure;Samples;Min_cycle;Max_cycle;Signal;HPM_P1;HPM_P2
2022/12/05 00:00:33;;;;;;;11.47;7.43;;;;;;;18.91;48.16;100195.53;5052358;28;20611;-61
2022/12/05 00:03:02;;;;;;;11.37;7.43;;;;;;;18.88;48.47;100194.28;5058859;28;20171;-60
2022/12/05 00:05:28;;;;;;;12.60;7.17;;;;;;;18.93;48.70;100199.66;5059573;28;20674;-61
2022/12/05 00:07:53;;;;;;;9.07;6.30;;;;;;;18.91;48.89;100202.06;5072207;28;20409;-61
2022/12/05 00:10:19;;;;;;;13.47;6.93;;;;;;;18.95;49.54;100202.09;5064779;28;20655;-61
2022/12/05 00:12:44;;;;;;;10.20;6.43;;;;;;;18.92;49.12;100202.91;5052178;28;20164;-61
2022/12/05 00:15:11;;;;;;;8.63;6.03;;;;;;;18.88;49.43;100202.84;5051454;28;20176;-61
2022/12/05 00:17:38;;;;;;;11.10;6.60;;;;;;;18.95;49.24;100205.81;5069945;28;20186;-61
2022/12/05 00:20:04;;;;;;;9.77;6.47;;;;;;;18.90;49.54;100203.28;5054048;28;20444;-61
2022/12/05 00:22:30;;;;;;;10.10;7.03;;;;;;;18.92;49.59;100209.44;5067262;28;20448;-61
2022/12/05 00:24:55;;;;;;;13.13;7.27;;;;;;;18.91;49.98;100209.84;5071552;28;20445;-61
2022/12/05 00:27:20;;;;;;;9.70;6.37;;;;;;;18.93;50.07;100204.53;5070232;28;20179;-61
2022/12/05 00:29:46;;;;;;;9.37;5.83;;;;;;;18.90;50.56;100202.44;5053789;28;20183;-61
2022/12/05 00:32:11;;;;;;;9.27;6.00;;;;;;;18.87;49.99;100206.91;5053931;28;20179;-61
2022/12/05 00:34:37;;;;;;;7.90;5.30;;;;;;;18.83;50.48;100214.63;5061552;28;20589;-61
2022/12/05 00:37:02;;;;;;;10.50;5.60;;;;;;;18.87;50.50;100211.81;5051716;28;20799;-61
2022/12/05 00:39:27;;;;;;;13.67;6.30;;;;;;;18.91;50.85;100206.97;5052487;28;20768;-61
2022/12/05 00:41:53;;;;;;;9.33;5.90;;;;;;;18.85;50.43;100208.50;5053607;28;20175;-61
2022/12/05 00:44:18;;;;;;;10.10;6.00;;;;;;;18.89;50.83;100204.50;5071331;28;20187;-61
2022/12/05 00:46:44;;;;;;;9.47;6.07;;;;;;;18.86;51.17;100196.69;5060390;28;20194;-61
2022/12/05 00:49:09;;;;;;;9.20;6.40;;;;;;;18.88;51.23;100197.13;5062095;28;20179;-61
2022/12/05 00:51:37;;;;;;;8.60;5.47;;;;;;;18.83;51.05;100199.50;5050393;28;20203;-61
2022/12/05 00:54:05;;;;;;;11.30;5.77;;;;;;;18.90;50.85;100188.97;5071054;28;20258;-61
2022/12/05 00:56:30;;;;;;;9.50;5.63;;;;;;;18.91;51.19;100196.34;5053561;28;20420;-61
2022/12/05 00:58:56;;;;;;;9.00;5.47;;;;;;;18.86;51.47;100190.94;5058342;28;20793;-61
2022/12/05 01:01:24;;;;;;;10.77;6.10;;;;;;;18.91;51.14;100190.63;5051398;28;20233;-61
2022/12/05 01:03:51;;;;;;;6.73;4.83;;;;;;;18.89;51.04;100186.50;5056651;28;20211;-61
2022/12/05 01:06:17;;;;;;;8.07;5.33;;;;;;;18.85;51.72;100188.47;5051649;28;20434;-61
2022/12/05 01:08:42;;;;;;;9.00;5.90;;;;;;;18.87;51.12;100189.75;5070679;28;20440;-61
2022/12/05 01:11:12;;;;;;;9.30;5.60;;;;;;;18.85;51.53;100195.03;5056645;28;20210;-61
2022/12/05 01:13:38;;;;;;;9.13;5.53;;;;;;;18.84;51.92;100210.56;5033215;28;20156;-61
2022/12/05 01:16:04;;;;;;;7.80;5.67;;;;;;;18.83;51.74;100202.34;5053740;28;20461;-61
2022/12/05 01:18:29;;;;;;;8.70;5.90;;;;;;;18.83;51.74;100206.03;5051126;28;20203;-61
2022/12/05 01:20:55;;;;;;;8.33;5.53;;;;;;;18.83;51.65;100206.03;5048932;28;20198;-61
2022/12/05 01:23:21;;;;;;;9.30;5.00;;;;;;;18.87;51.75;100206.91;5071239;28;20236;-61
2022/12/05 01:25:47;;;;;;;8.47;4.97;;;;;;;18.82;51.68;100210.09;5067439;28;20278;-60
2022/12/05 01:28:13;;;;;;;9.40;4.97;;;;;;;18.84;51.81;100209.72;5070275;28;20731;-61
2022/12/05 01:30:39;;;;;;;9.30;5.30;;;;;;;18.79;52.34;100205.16;5068440;28;20434;-61
2022/12/05 01:33:05;;;;;;;8.83;4.97;;;;;;;18.80;52.06;100211.69;5053678;28;20230;-61
2022/12/05 01:35:32;;;;;;;11.97;5.60;;;;;;;18.82;51.97;100207.22;5037429;28;20936;-61
2022/12/05 01:37:57;;;;;;;8.90;6.17;;;;;;;18.79;52.13;100210.88;5067053;28;20191;-61
2022/12/05 01:40:23;;;;;;;7.60;5.53;;;;;;;18.83;51.75;100214.63;5075179;28;20400;-61
2022/12/05 01:42:48;;;;;;;7.57;5.27;;;;;;;18.81;52.16;100214.16;5071502;28;20179;-61
2022/12/05 01:45:16;;;;;;;6.90;4.60;;;;;;;18.79;51.94;100208.03;5054781;28;20261;-61
2022/12/05 01:47:41;;;;;;;8.20;5.00;;;;;;;18.78;51.93;100209.25;5020822;28;20164;-61
2022/12/05 01:50:07;;;;;;;8.10;5.30;;;;;;;18.79;52.47;100219.47;5046047;28;21162;-61
2022/12/05 01:52:32;;;;;;;8.80;5.00;;;;;;;18.83;52.06;100217.50;5049928;28;20188;-61
2022/12/05 01:55:03;;;;;;;9.10;5.47;;;;;;;18.72;52.68;100222.19;5054723;28;20425;-61
2022/12/05 01:57:29;;;;;;;6.90;5.07;;;;;;;18.79;51.98;100225.19;5019678;28;20235;-61
2022/12/05 02:00:00;;;;;;;8.47;4.67;;;;;;;18.77;52.36;100219.00;5016987;28;20414;-61
2022/12/05 02:02:27;;;;;;;7.67;5.23;;;;;;;18.76;52.30;100231.66;5044836;28;20590;-64
2022/12/05 02:05:06;;;;;;;8.83;5.67;;;;;;;18.71;52.27;100234.03;5034075;28;20472;-64
2022/12/05 02:07:32;;;;;;;8.20;5.43;;;;;;;18.73;52.58;100240.19;5047543;28;20446;-64
2022/12/05 02:09:57;;;;;;;9.70;5.07;;;;;;;18.75;52.44;100244.31;5016544;28;20403;-64
2022/12/05 02:12:23;;;;;;;7.60;4.50;;;;;;;18.72;52.36;100250.78;5034762;28;20168;-64
2022/12/05 02:15:16;;;;;;;6.93;5.10;;;;;;;18.72;53.01;100249.97;5034272;28;20260;-65
2022/12/05 02:18:19;;;;;;;10.17;5.30;;;;;;;18.72;52.48;100259.38;5051443;28;20670;-64
2022/12/05 02:20:54;;;;;;;7.97;5.10;;;;;;;18.76;52.66;100259.44;5054121;28;20414;-65
2022/12/05 02:23:41;;;;;;;8.37;5.50;;;;;;;18.73;52.82;100265.94;5054310;28;20417;-65
2022/12/05 02:26:33;;;;;;;6.80;4.40;;;;;;;18.74;52.38;100265.53;5035379;28;20503;-64
2022/12/05 02:29:20;;;;;;;8.40;4.83;;;;;;;18.71;52.67;100265.50;5036228;28;20418;-64
2022/12/05 02:32:16;;;;;;;6.90;4.30;;;;;;;18.71;52.56;100269.16;5042578;28;20449;-64
2022/12/05 02:34:51;;;;;;;7.40;5.23;;;;;;;18.70;52.83;100272.41;5016174;28;20403;-64
2022/12/05 02:37:27;;;;;;;5.93;4.77;;;;;;;18.71;52.74;100266.31;5036507;28;20993;-64
2022/12/05 02:40:10;;;;;;;6.60;4.53;;;;;;;18.70;52.69;100270.38;5033863;28;20465;-64
2022/12/05 02:42:39;;;;;;;6.47;4.30;;;;;;;18.67;53.20;100268.25;5002985;28;20524;-64
2022/12/05 02:45:08;;;;;;;8.90;4.80;;;;;;;18.69;52.89;100263.00;5032442;28;20490;-64
2022/12/05 02:47:36;;;;;;;7.07;5.00;;;;;;;18.69;52.77;100259.31;5035763;28;20437;-65
2022/12/05 02:50:02;;;;;;;7.87;5.30;;;;;;;18.70;52.77;100264.66;5008569;28;20430;-64
2022/12/05 02:52:28;;;;;;;6.97;5.00;;;;;;;18.68;52.78;100260.53;5035969;28;20412;-64
2022/12/05 02:54:53;;;;;;;6.30;4.40;;;;;;;18.71;52.82;100262.63;5023645;28;20813;-64
2022/12/05 02:57:19;;;;;;;7.87;5.07;;;;;;;18.69;52.79;100250.72;5015695;28;20665;-65
2022/12/05 02:59:44;;;;;;;5.90;4.27;;;;;;;18.70;53.16;100246.66;5017591;28;20177;-64
2022/12/05 03:02:40;;;;;;;7.47;5.10;;;;;;;18.68;53.11;100244.22;5053373;28;20172;-64
2022/12/05 03:05:37;;;;;;;6.00;4.10;;;;;;;18.65;53.09;100244.97;5031637;28;20614;-64
2022/12/05 03:08:03;;;;;;;7.33;4.50;;;;;;;18.68;53.13;100252.78;5038026;28;20802;-64
2022/12/05 03:10:29;;;;;;;7.07;4.60;;;;;;;18.69;53.17;100253.59;5035367;28;20525;-64
2022/12/05 03:13:02;;;;;;;7.20;4.90;;;;;;;18.67;53.54;100256.81;5040642;28;20250;-64
2022/12/05 03:15:32;;;;;;;6.40;3.90;;;;;;;18.68;53.20;100249.09;4999642;28;20256;-64
2022/12/05 03:18:23;;;;;;;7.00;4.33;;;;;;;18.64;53.13;100243.31;5017401;28;20796;-64
2022/12/05 03:21:00;;;;;;;5.53;3.93;;;;;;;18.63;53.35;100246.56;5047263;28;20496;-65
2022/12/05 03:23:32;;;;;;;7.13;5.00;;;;;;;18.64;53.10;100246.19;5050522;28;20433;-64
2022/12/05 03:26:10;;;;;;;6.77;4.30;;;;;;;18.59;53.35;100255.06;5033795;28;20491;-64
2022/12/05 03:29:03;;;;;;;9.53;4.60;;;;;;;18.65;53.00;100238.41;5052987;28;20401;-65
2022/12/05 03:32:02;;;;;;;5.70;4.30;;;;;;;18.60;53.47;100248.16;5021803;28;20455;-64
2022/12/05 03:34:49;;;;;;;6.53;4.10;;;;;;;18.64;53.19;100249.03;5010545;28;20727;-65
2022/12/05 03:37:33;;;;;;;6.27;4.27;;;;;;;18.65;53.79;100244.97;5035472;28;20415;-64
2022/12/05 03:40:27;;;;;;;6.40;4.23;;;;;;;18.61;53.58;100244.06;5016878;28;20406;-64
2022/12/05 03:42:59;;;;;;;7.03;4.60;;;;;;;18.56;53.43;100241.53;5011712;28;20434;-64
2022/12/05 03:45:33;;;;;;;5.00;3.80;;;;;;;18.59;53.50;100243.63;5034627;28;20518;-65
2022/12/05 03:48:06;;;;;;;6.60;4.67;;;;;;;18.64;53.42;100239.63;5047661;28;20438;-64
2022/12/05 03:50:32;;;;;;;6.73;4.73;;;;;;;18.57;53.17;100240.31;5011421;28;20552;-64
2022/12/05 03:53:09;;;;;;;5.70;4.30;;;;;;;18.57;53.61;100237.47;5034367;28;20414;-65
2022/12/05 03:55:35;;;;;;;6.77;4.20;;;;;;;18.59;53.38;100235.06;5050071;28;20176;-65
2022/12/05 03:58:04;;;;;;;6.03;4.20;;;;;;;18.61;53.43;100232.63;5033768;28;20569;-65
2022/12/05 04:00:32;;;;;;;6.00;4.40;;;;;;;18.61;53.30;100237.53;5034154;28;20932;-64
2022/12/05 04:03:06;;;;;;;6.40;3.80;;;;;;;18.62;53.44;100236.34;5015542;28;20434;-64
2022/12/05 04:05:36;;;;;;;7.10;4.10;;;;;;;18.60;53.29;100233.84;5034424;28;21022;-64
2022/12/05 04:08:21;;;;;;;7.13;4.40;;;;;;;18.62;53.48;100244.91;5034122;28;20487;-65
2022/12/05 04:10:48;;;;;;;4.93;4.00;;;;;;;18.65;53.68;100256.41;5019466;28;20974;-65
2022/12/05 04:13:23;;;;;;;5.40;3.83;;;;;;;18.59;53.56;100255.06;5039349;28;20446;-65
2022/12/05 04:18:37;;;;;;;5.93;4.03;;;;;;;18.57;53.39;100257.47;5034195;28;20473;-65
2022/12/05 04:25:31;;;;;;;6.13;3.63;;;;;;;18.57;53.54;100257.47;5038180;28;20441;-65
2022/12/05 04:26:32;;;;;;;8.40;4.30;;;;;;;18.63;53.42;100266.56;5019521;28;20474;-64
2022/12/05 04:29:00;;;;;;;7.03;4.80;;;;;;;18.59;53.60;100269.38;5031708;28;20783;-64
2022/12/05 04:31:32;;;;;;;6.17;4.27;;;;;;;18.64;53.51;100273.94;5017240;28;20164;-64
2022/12/05 04:34:00;;;;;;;6.17;4.03;;;;;;;18.60;53.46;100279.59;5014956;28;20418;-64
2022/12/05 04:36:35;;;;;;;5.60;3.90;;;;;;;18.61;53.86;100278.38;5014000;28;20419;-64
2022/12/05 04:39:07;;;;;;;5.97;4.00;;;;;;;18.60;53.42;100287.34;5031584;28;20926;-64
2022/12/05 04:41:40;;;;;;;5.53;4.03;;;;;;;18.59;53.63;100280.81;5034288;28;20446;-64
2022/12/05 04:44:10;;;;;;;4.90;3.90;;;;;;;18.61;53.57;100286.97;5013978;28;20524;-64
2022/12/05 04:46:37;;;;;;;5.47;3.87;;;;;;;18.63;53.61;100293.13;5031570;28;20395;-64
2022/12/05 04:49:02;;;;;;;5.40;3.50;;;;;;;18.62;53.74;100291.47;5014214;28;20410;-64
2022/12/05 04:51:29;;;;;;;5.40;3.50;;;;;;;18.64;53.56;100297.66;5004025;28;20501;-64
2022/12/05 04:54:17;;;;;;;6.07;4.23;;;;;;;18.63;53.40;100300.88;5013765;28;20165;-64
2022/12/05 04:56:43;;;;;;;5.93;3.80;;;;;;;18.61;53.76;100301.25;5018360;28;20464;-64
2022/12/05 04:59:08;;;;;;;6.40;4.00;;;;;;;18.62;53.41;100305.75;5033863;28;20510;-65
2022/12/05 05:01:48;;;;;;;7.03;4.50;;;;;;;18.61;53.82;100306.16;5068475;28;20449;-64
2022/12/05 05:04:33;;;;;;;5.10;3.50;;;;;;;18.63;53.75;100309.47;5068632;28;20256;-64
2022/12/05 05:06:59;;;;;;;5.70;3.63;;;;;;;18.64;53.52;100306.22;5070423;28;20453;-64
2022/12/05 05:09:24;;;;;;;5.77;4.17;;;;;;;18.64;53.66;100306.22;5069918;28;20869;-64
2022/12/05 05:11:49;;;;;;;6.13;3.93;;;;;;;18.62;53.52;100302.91;5055698;28;20640;-64
2022/12/05 05:14:15;;;;;;;4.67;3.33;;;;;;;18.63;53.46;100300.88;5050865;28;20210;-65
2022/12/05 05:16:41;;;;;;;4.93;3.57;;;;;;;18.60;53.68;100299.63;5066999;28;20262;-64
2022/12/05 05:19:07;;;;;;;4.80;3.63;;;;;;;18.66;53.44;100303.00;5058736;28;20180;-64
2022/12/05 05:21:37;;;;;;;5.70;3.40;;;;;;;18.64;53.39;100306.22;5070565;28;20402;-64
2022/12/05 05:24:02;;;;;;;5.07;3.67;;;;;;;18.65;53.59;100312.75;5065835;28;20210;-64
2022/12/05 05:26:28;;;;;;;6.50;4.17;;;;;;;18.63;53.45;100309.47;5051166;28;20406;-65
2022/12/05 05:28:53;;;;;;;5.27;3.50;;;;;;;18.62;53.55;100311.47;5050805;28;20166;-65
2022/12/05 05:31:19;;;;;;;6.17;4.00;;;;;;;18.68;53.54;100315.69;5050836;28;20164;-64
2022/12/05 05:33:48;;;;;;;5.10;3.70;;;;;;;18.64;53.50;100317.66;5053120;28;20191;-65
2022/12/05 05:36:14;;;;;;;5.30;3.60;;;;;;;18.69;53.47;100320.22;5033189;28;20191;-64
2022/12/05 05:38:41;;;;;;;5.30;3.90;;;;;;;18.66;53.66;100323.00;5050943;28;20420;-65
2022/12/05 05:41:15;;;;;;;5.93;3.50;;;;;;;18.58;53.36;100330.63;5050936;28;20615;-65
2022/12/05 05:43:41;;;;;;;5.10;3.77;;;;;;;18.66;53.71;100325.88;5053124;28;20869;-65
2022/12/05 05:46:06;;;;;;;4.33;3.60;;;;;;;18.62;53.44;100322.91;5016747;28;20453;-65
2022/12/05 05:48:32;;;;;;;5.37;3.63;;;;;;;18.64;53.43;100329.09;5032853;28;20187;-66
2022/12/05 05:50:58;;;;;;;4.80;3.60;;;;;;;18.64;53.89;100323.38;5065220;28;20646;-65
2022/12/05 05:53:24;;;;;;;4.63;3.20;;;;;;;18.62;53.74;100324.97;5067034;28;20649;-65
2022/12/05 05:55:49;;;;;;;4.73;3.60;;;;;;;18.64;53.72;100336.84;5070020;28;20410;-65
2022/12/05 05:58:14;;;;;;;4.43;3.20;;;;;;;18.66;53.67;100337.31;5065446;28;20226;-66
2022/12/05 06:00:40;;;;;;;5.37;3.60;;;;;;;18.64;53.73;100339.69;5067745;28;20187;-65
2022/12/05 06:03:05;;;;;;;5.20;3.57;;;;;;;18.65;53.82;100347.91;5067471;28;20183;-66
2022/12/05 06:05:31;;;;;;;4.63;3.50;;;;;;;18.65;53.83;100349.94;5070544;28;20215;-66
2022/12/05 06:07:56;;;;;;;4.60;3.13;;;;;;;18.65;53.73;100358.50;5067670;28;20196;-66
2022/12/05 06:10:22;;;;;;;6.40;4.20;;;;;;;18.66;53.86;100358.13;5070671;28;20175;-65
2022/12/05 06:12:47;;;;;;;5.10;3.63;;;;;;;18.65;53.81;100358.50;5049493;28;20194;-65
2022/12/05 06:15:12;;;;;;;5.70;3.47;;;;;;;18.65;53.72;100359.34;5050792;28;20913;-66
2022/12/05 06:17:38;;;;;;;6.20;3.90;;;;;;;18.64;53.86;100363.41;5049253;28;20648;-65
2022/12/05 06:20:05;;;;;;;4.80;3.73;;;;;;;18.68;53.76;100372.91;5065313;28;20662;-65
2022/12/05 06:22:30;;;;;;;5.33;3.60;;;;;;;18.66;53.66;100375.28;5073829;28;20209;-66
2022/12/05 06:24:57;;;;;;;5.17;4.03;;;;;;;18.69;53.55;100376.56;5069958;28;20460;-65
2022/12/05 06:27:22;;;;;;;5.30;3.83;;;;;;;18.65;54.01;100376.50;5053998;28;20177;-66
2022/12/05 06:29:48;;;;;;;4.60;3.53;;;;;;;18.63;53.86;100381.78;5054006;28;20456;-66
2022/12/05 06:32:13;;;;;;;5.27;3.80;;;;;;;18.65;53.80;100387.09;5067861;28;20195;-65
2022/12/05 06:34:38;;;;;;;4.93;3.17;;;;;;;18.66;53.67;100388.78;5074124;28;20210;-65
2022/12/05 06:37:04;;;;;;;4.90;3.40;;;;;;;18.67;53.49;100396.94;5068783;28;20192;-65
2022/12/05 06:39:29;;;;;;;6.53;3.97;;;;;;;18.70;53.73;100403.94;5053742;28;20187;-65
2022/12/05 06:41:55;;;;;;;5.00;3.67;;;;;;;18.64;53.98;100403.44;5053736;28;20175;-66
2022/12/05 06:44:20;;;;;;;5.53;3.80;;;;;;;18.64;53.94;100397.72;5056133;28;20216;-66
2022/12/05 06:46:47;;;;;;;5.40;3.73;;;;;;;18.64;53.69;100409.16;5054034;28;20643;-65
2022/12/05 06:49:15;;;;;;;5.60;3.93;;;;;;;18.68;53.94;100403.50;5057869;28;20192;-66
2022/12/05 06:51:40;;;;;;;5.17;3.13;;;;;;;18.62;53.77;100402.97;5073842;28;20741;-65
2022/12/05 06:54:06;;;;;;;6.00;3.53;;;;;;;18.68;53.52;100406.38;5073482;28;20401;-65
2022/12/05 06:56:31;;;;;;;4.80;3.30;;;;;;;18.64;53.66;100409.16;5057275;28;20183;-66
2022/12/05 06:58:57;;;;;;;4.93;3.43;;;;;;;18.68;53.71;100403.50;5054719;28;20180;-66
2022/12/05 07:01:37;;;;;;;6.80;3.90;;;;;;;18.67;53.77;100408.38;5057769;28;20514;-66
2022/12/05 07:04:04;;;;;;;3.93;3.20;;;;;;;18.65;53.75;100402.25;5073141;28;20488;-66
2022/12/05 07:06:30;;;;;;;4.73;3.30;;;;;;;18.68;53.76;100409.22;5069060;28;20448;-65
2022/12/05 07:08:55;;;;;;;4.90;3.50;;;;;;;18.65;53.69;100409.97;5071323;28;20417;-65
2022/12/05 07:11:21;;;;;;;5.00;3.33;;;;;;;18.69;54.01;100416.59;5069696;28;20926;-65
2022/12/05 07:13:46;;;;;;;4.47;3.27;;;;;;;18.65;53.85;100413.69;5053717;28;20180;-65
2022/12/05 07:16:12;;;;;;;4.90;3.40;;;;;;;18.63;53.89;100418.97;5060820;28;20175;-65
2022/12/05 07:18:37;;;;;;;4.90;3.50;;;;;;;18.66;54.38;100417.38;5061390;28;20194;-65
2022/12/05 07:21:04;;;;;;;5.13;3.57;;;;;;;18.69;53.83;100423.16;5068237;28;20174;-66
2022/12/05 07:23:30;;;;;;;4.60;3.47;;;;;;;18.65;53.89;100425.13;5071197;28;20565;-66
2022/12/05 07:25:58;;;;;;;4.17;3.03;;;;;;;18.65;54.13;100427.97;5036449;28;20469;-66
2022/12/05 07:28:24;;;;;;;5.17;3.57;;;;;;;18.69;53.68;100436.63;5052959;28;20152;-66
2022/12/05 07:30:59;;;;;;;4.83;3.23;;;;;;;18.65;53.80;100442.28;5062837;28;20437;-65
2022/12/05 07:33:24;;;;;;;4.50;3.17;;;;;;;18.68;53.99;100449.25;5072434;28;20497;-66
2022/12/05 07:35:50;;;;;;;6.00;3.60;;;;;;;18.69;54.43;100446.03;5066664;28;20506;-65
2022/12/05 07:38:15;;;;;;;4.90;3.47;;;;;;;18.65;53.85;100450.84;5057554;28;20257;-65
2022/12/05 07:40:41;;;;;;;5.07;3.50;;;;;;;18.62;53.92;100462.22;5072816;28;20163;-66
2022/12/05 07:43:06;;;;;;;4.00;3.00;;;;;;;18.67;54.21;100454.16;5072497;28;20186;-65
2022/12/05 07:45:34;;;;;;;5.47;3.70;;;;;;;18.71;53.71;100454.25;5069428;28;20195;-65
2022/12/05 07:47:59;;;;;;;4.77;3.00;;;;;;;18.69;53.80;100459.50;5072887;28;20164;-66
2022/12/05 07:50:25;;;;;;;4.47;3.27;;;;;;;18.68;53.71;100467.25;5069012;28;20438;-66
2022/12/05 07:52:51;;;;;;;4.90;3.27;;;;;;;18.67;53.89;100471.31;5072260;28;20638;-66
2022/12/05 07:55:16;;;;;;;6.03;3.47;;;;;;;18.74;53.50;100465.75;5053267;28;20266;-66
2022/12/05 07:57:42;;;;;;;4.93;3.47;;;;;;;18.71;53.76;100472.22;5055923;28;20962;-66
2022/12/05 08:00:08;;;;;;;5.57;3.50;;;;;;;18.68;54.33;100470.13;5035081;28;20658;-65
2022/12/05 08:02:33;;;;;;;4.90;3.20;;;;;;;18.70;54.29;100479.13;5052562;28;20175;-66
2022/12/05 08:04:58;;;;;;;7.50;3.97;;;;;;;18.71;54.01;100475.06;5068930;28;20473;-66
2022/12/05 08:07:24;;;;;;;5.07;3.30;;;;;;;18.69;53.68;100470.94;5071930;28;20178;-66
2022/12/05 08:09:49;;;;;;;4.87;3.40;;;;;;;18.63;53.79;100470.44;5069015;28;20179;-65
2022/12/05 08:12:15;;;;;;;5.37;3.80;;;;;;;18.66;53.85;100472.50;5061105;28;20179;-65
2022/12/05 08:14:40;;;;;;;5.77;3.10;;;;;;;18.72;53.71;100459.56;5071762;28;20179;-66
2022/12/05 08:17:05;;;;;;;4.70;3.33;;;;;;;18.71;53.74;100463.63;5057678;28;20176;-66
2022/12/05 08:19:31;;;;;;;3.53;2.93;;;;;;;18.72;53.70;100461.63;5056409;28;20194;-66
2022/12/05 08:21:56;;;;;;;4.97;3.47;;;;;;;18.72;53.75;100456.69;5067370;28;20534;-65
2022/12/05 08:24:23;;;;;;;4.33;3.07;;;;;;;18.69;53.94;100468.06;5051847;28;20236;-66
2022/12/05 08:26:49;;;;;;;5.50;3.40;;;;;;;18.69;53.84;100460.34;5051691;28;20222;-66
2022/12/05 08:29:15;;;;;;;3.93;2.90;;;;;;;18.74;53.68;100465.75;5053953;28;20442;-66
2022/12/05 08:31:47;;;;;;;4.10;3.17;;;;;;;18.69;54.15;100460.34;5033895;28;20187;-66
2022/12/05 08:34:13;;;;;;;4.53;3.40;;;;;;;18.65;54.20;100476.59;5054037;28;20183;-65
2022/12/05 08:36:39;;;;;;;4.40;3.40;;;;;;;18.65;54.14;100479.44;5051718;28;20415;-66
2022/12/05 08:39:05;;;;;;;5.10;3.23;;;;;;;18.70;53.94;100490.59;5051737;28;20191;-66
2022/12/05 08:41:31;;;;;;;5.30;3.37;;;;;;;18.71;53.92;100486.50;5051907;28;20178;-65
2022/12/05 08:43:58;;;;;;;4.73;3.27;;;;;;;18.70;53.76;100492.59;5036124;28;20434;-66
2022/12/05 08:46:23;;;;;;;4.40;3.63;;;;;;;18.69;53.69;100502.38;5051462;28;20638;-66
2022/12/05 08:48:49;;;;;;;4.13;2.87;;;;;;;18.67;54.08;100499.91;5053194;28;20479;-66
2022/12/05 08:51:14;;;;;;;5.20;3.50;;;;;;;18.71;53.92;100495.09;5071217;28;20233;-65
2022/12/05 08:53:40;;;;;;;4.20;3.00;;;;;;;18.66;54.08;100488.88;5071466;28;20171;-66
2022/12/05 08:56:06;;;;;;;3.93;2.90;;;;;;;18.72;53.82;100493.88;5057435;28;20191;-66
2022/12/05 08:58:32;;;;;;;4.47;3.20;;;;;;;18.71;53.97;100503.66;5051222;28;20240;-65
2022/12/05 09:01:13;;;;;;;4.10;2.90;;;;;;;18.66;53.96;100503.97;5053521;28;20465;-65
2022/12/05 09:03:39;;;;;;;5.60;3.80;;;;;;;18.68;53.94;100507.31;5054240;28;20179;-65
2022/12/05 09:06:15;;;;;;;5.27;3.50;;;;;;;18.63;54.13;100496.16;5051027;28;20876;-66
2022/12/05 09:08:41;;;;;;;3.90;2.70;;;;;;;18.62;54.06;100508.78;5053817;28;20583;-66
2022/12/05 09:11:07;;;;;;;4.70;3.33;;;;;;;18.65;54.23;100505.19;5051171;28;20439;-66
2022/12/05 09:13:33;;;;;;;5.87;3.67;;;;;;;18.66;54.11;100518.28;5053241;28;20187;-66
2022/12/05 09:15:58;;;;;;;5.10;3.43;;;;;;;18.76;54.18;100528.28;5057970;28;20434;-65
2022/12/05 09:18:24;;;;;;;5.03;3.37;;;;;;;18.66;54.09;100532.56;5036798;28;20183;-66
2022/12/05 09:20:49;;;;;;;4.37;2.97;;;;;;;18.63;54.36;100539.06;5067350;28;20194;-66
2022/12/05 09:23:15;;;;;;;4.03;3.37;;;;;;;18.64;54.22;100546.44;5070901;28;20174;-66
2022/12/05 09:25:40;;;;;;;4.27;3.20;;;;;;;18.70;54.12;100555.53;5070479;28;20681;-66
2022/12/05 09:28:05;;;;;;;5.23;3.23;;;;;;;18.67;54.02;100559.97;5064992;28;20618;-66
2022/12/05 09:30:31;;;;;;;4.40;2.80;;;;;;;18.69;54.18;100554.72;5050195;28;20179;-66
2022/12/05 09:32:56;;;;;;;4.40;3.20;;;;;;;18.62;54.40;100548.81;5050111;28;20187;-66
2022/12/05 09:35:22;;;;;;;5.13;3.50;;;;;;;18.60;54.34;100554.09;5052758;28;20196;-66
2022/12/05 09:37:47;;;;;;;4.73;3.40;;;;;;;18.63;54.11;100544.78;5050279;28;20182;-65
2022/12/05 09:40:16;;;;;;;4.30;3.17;;;;;;;18.61;54.37;100544.31;5052509;28;20257;-66
2022/12/05 09:42:53;;;;;;;4.23;3.00;;;;;;;18.67;54.59;100550.56;5032491;28;20663;-66
2022/12/05 09:45:28;;;;;;;4.90;3.17;;;;;;;18.67;54.06;100548.53;5033087;28;20466;-65
2022/12/05 09:47:56;;;;;;;4.00;3.00;;;;;;;18.69;54.05;100543.28;5041368;28;20441;-66
2022/12/05 09:50:46;;;;;;;5.37;3.00;;;;;;;18.63;54.21;100561.94;5012816;28;20446;-66
2022/12/05 09:53:36;;;;;;;4.30;3.33;;;;;;;18.67;54.57;100559.97;5066428;28;20535;-66
2022/12/05 09:56:11;;;;;;;4.77;3.43;;;;;;;18.74;54.08;100553.56;5071262;28;20448;-66
2022/12/05 09:58:42;;;;;;;4.40;3.00;;;;;;;18.71;54.05;100552.28;5020569;28;20481;-66
2022/12/05 10:01:35;;;;;;;3.27;2.40;;;;;;;18.72;54.22;100553.94;5053211;28;20405;-65
2022/12/05 10:04:03;;;;;;;4.10;3.10;;;;;;;18.68;54.18;100553.06;5057226;28;20421;-65
2022/12/05 10:06:39;;;;;;;4.53;3.10;;;;;;;18.66;54.34;100540.34;5053766;28;20417;-65
2022/12/05 10:09:33;;;;;;;5.43;3.40;;;;;;;18.64;54.65;100539.88;5055268;28;20431;-66
2022/12/05 10:12:16;;;;;;;4.00;2.80;;;;;;;18.64;54.49;100549.28;5072929;28;20386;-65
2022/12/05 10:14:57;;;;;;;5.10;3.30;;;;;;;18.71;54.21;100546.56;5073029;28;20802;-66
2022/12/05 10:17:27;;;;;;;5.57;2.90;;;;;;;18.69;54.24;100534.69;5074238;28;20499;-66
2022/12/05 10:19:55;;;;;;;4.03;3.10;;;;;;;18.60;54.39;100541.81;5053419;28;20452;-66
2022/12/05 10:22:42;;;;;;;4.40;3.10;;;;;;;18.62;54.63;100548.00;5056122;28;20507;-66
2022/12/05 10:25:08;;;;;;;3.60;2.67;;;;;;;18.64;54.60;100543.56;5055465;28;20824;-65
2022/12/05 10:27:40;;;;;;;4.53;3.03;;;;;;;18.66;54.25;100535.44;5039822;28;20441;-66
2022/12/05 10:30:16;;;;;;;4.00;3.03;;;;;;;18.65;54.32;100536.63;5056165;28;20178;-66
2022/12/05 10:32:51;;;;;;;5.40;3.50;;;;;;;18.69;54.13;100534.69;5039840;28;20879;-66
2022/12/05 10:35:19;;;;;;;3.33;2.60;;;;;;;18.68;54.30;100540.78;5073758;28;20429;-65
2022/12/05 10:37:49;;;;;;;4.20;3.00;;;;;;;18.69;54.21;100537.56;5073890;28;20421;-66
2022/12/05 10:40:15;;;;;;;4.20;3.00;;;;;;;18.65;54.18;100538.66;5052617;28;20432;-66
2022/12/05 10:42:40;;;;;;;3.97;2.87;;;;;;;18.68;54.27;100547.34;5073963;28;20761;-66
2022/12/05 10:45:12;;;;;;;4.27;3.00;;;;;;;18.70;54.07;100542.06;5073751;28;20199;-66
2022/12/05 10:47:37;;;;;;;4.37;2.90;;;;;;;18.65;54.27;100536.63;5056302;28;20187;-65
2022/12/05 10:50:06;;;;;;;4.27;3.13;;;;;;;18.68;54.35;100537.91;5069506;28;20452;-66
2022/12/05 10:52:31;;;;;;;4.50;2.90;;;;;;;18.73;54.26;100538.47;5072784;28;21059;-66
2022/12/05 10:55:01;;;;;;;3.67;2.83;;;;;;;18.70;54.23;100533.47;5072995;28;20424;-66
2022/12/05 10:57:28;;;;;;;4.60;2.87;;;;;;;18.66;54.36;100537.47;5021417;28;20610;-66
2022/12/05 10:59:55;;;;;;;4.77;3.40;;;;;;;18.73;54.36;100531.91;5064998;28;20433;-65
2022/12/05 11:02:25;;;;;;;4.87;3.30;;;;;;;18.66;54.61;100531.75;5062153;28;20420;-66
2022/12/05 11:04:51;;;;;;;4.20;3.00;;;;;;;18.67;54.47;100534.22;5059792;28;20830;-65
2022/12/05 11:07:31;;;;;;;4.47;2.80;;;;;;;18.66;54.48;100532.56;5035481;28;20509;-66
2022/12/05 11:09:58;;;;;;;5.43;3.27;;;;;;;18.72;54.40;100535.97;5055862;28;20610;-66
2022/12/05 11:12:28;;;;;;;4.93;3.23;;;;;;;18.71;54.06;100529.41;5038385;28;20467;-66
2022/12/05 11:15:35;;;;;;;4.70;3.23;;;;;;;18.65;54.50;100530.91;5073054;28;20443;-66
2022/12/05 11:18:36;;;;;;;3.70;2.60;;;;;;;18.65;54.67;100533.78;5072319;28;20457;-66
2022/12/05 11:21:09;;;;;;;3.77;2.83;;;;;;;18.67;54.56;100536.28;5070114;28;20460;-66
2022/12/05 11:23:35;;;;;;;3.93;2.87;;;;;;;18.71;54.46;100540.03;5073325;28;20486;-66
2022/12/05 11:26:00;;;;;;;3.93;2.80;;;;;;;18.65;54.52;100532.94;5070752;28;20465;-66
2022/12/05 11:28:36;;;;;;;4.33;3.20;;;;;;;18.65;54.78;100536.63;5055027;28;20573;-66
2022/12/05 11:31:11;;;;;;;3.97;2.83;;;;;;;18.63;54.80;100530.47;5071027;28;20301;-66
2022/12/05 11:33:36;;;;;;;3.80;2.63;;;;;;;18.66;54.86;100526.03;5072461;28;20425;-66
2022/12/05 11:36:22;;;;;;;4.63;3.30;;;;;;;18.70;54.68;100532.63;5054925;28;20576;-66
2022/12/05 11:38:47;;;;;;;4.20;2.90;;;;;;;18.68;54.49;100533.03;5072277;28;20202;-66
2022/12/05 11:41:32;;;;;;;6.97;2.87;;;;;;;18.66;54.60;100534.63;5064868;28;20429;-66